sensor_id;sensor_type;location;lat;lon;timestamp;pressure;altitude;pressure_sealevel;temperature;humidity
37078;BME280;22989;55.998;37.212;2023-02-13T00:01:15;-11298.94;;;-145.39;61.27
37078;BME280;22989;55.998;37.212;2023-02-13T00:03:41;-11298.94;;;-145.39;61.12
37078;BME280;22989;55.998;37.212;2023-02-13T00:06:07;-11298.94;;;-145.39;61.09
37078;BME280;22989;55.998;37.212;2023-02-13T00:08:32;-11298.94;;;-145.39;60.73
37078;BME280;22989;55.998;37.212;2023-02-13T00:10:58;-11298.94;;;-145.39;60.86
37078;BME280;22989;55.998;37.212;2023-02-13T00:13:24;-11298.94;;;-145.39;60.54
37078;BME280;22989;55.998;37.212;2023-02-13T00:16:00;-11298.94;;;-145.39;60.38
37078;BME280;22989;55.998;37.212;2023-02-13T00:18:26;-11298.94;;;-145.39;60.52
37078;BME280;22989;55.998;37.212;2023-02-13T00:21:10;-11298.94;;;-145.39;60.53
37078;BME280;22989;55.998;37.212;2023-02-13T00:23:36;-11298.94;;;-145.39;60.51
37078;BME280;22989;55.998;37.212;2023-02-13T00:26:11;-11298.94;;;-145.39;60.23
37078;BME280;22989;55.998;37.212;2023-02-13T00:28:42;-11298.94;;;-145.39;60.49
37078;BME280;22989;55.998;37.212;2023-02-13T00:31:10;-11298.94;;;-145.39;60.22
37078;BME280;22989;55.998;37.212;2023-02-13T00:33:37;-11298.94;;;-145.39;60.35
37078;BME280;22989;55.998;37.212;2023-02-13T00:36:08;-11298.94;;;-145.39;60.43
37078;BME280;22989;55.998;37.212;2023-02-13T00:38:35;-11298.94;;;-145.39;60.25
37078;BME280;22989;55.998;37.212;2023-02-13T00:41:00;-11298.94;;;-145.39;60.27
37078;BME280;22989;55.998;37.212;2023-02-13T00:43:27;-11298.94;;;-145.39;59.97
37078;BME280;22989;55.998;37.212;2023-02-13T00:45:53;-11298.94;;;-145.39;60.23
37078;BME280;22989;55.998;37.212;2023-02-13T00:48:18;-11298.94;;;-145.39;59.94
37078;BME280;22989;55.998;37.212;2023-02-13T00:50:45;-11298.94;;;-145.39;59.91
37078;BME280;22989;55.998;37.212;2023-02-13T00:53:11;-11298.94;;;-145.39;59.89
37078;BME280;22989;55.998;37.212;2023-02-13T00:55:37;-11298.94;;;-145.39;59.72
37078;BME280;22989;55.998;37.212;2023-02-13T00:58:03;-11298.94;;;-145.39;59.83
37078;BME280;22989;55.998;37.212;2023-02-13T01:00:28;-11298.94;;;-145.39;59.74
37078;BME280;22989;55.998;37.212;2023-02-13T01:02:54;-11298.94;;;-145.39;59.96
37078;BME280;22989;55.998;37.212;2023-02-13T01:05:20;-11298.94;;;-145.39;59.87
37078;BME280;22989;55.998;37.212;2023-02-13T01:07:45;-11298.94;;;-145.39;59.67
37078;BME280;22989;55.998;37.212;2023-02-13T01:10:11;-11298.94;;;-145.39;59.43
37078;BME280;22989;55.998;37.212;2023-02-13T01:12:37;-11298.94;;;-145.39;59.45
37078;BME280;22989;55.998;37.212;2023-02-13T01:15:05;-11298.94;;;-145.39;59.18
37078;BME280;22989;55.998;37.212;2023-02-13T01:17:31;-11298.94;;;-145.39;59.32
37078;BME280;22989;55.998;37.212;2023-02-13T01:19:57;-11298.94;;;-145.39;59.42
37078;BME280;22989;55.998;37.212;2023-02-13T01:22:22;-11298.94;;;-145.39;59.09
37078;BME280;22989;55.998;37.212;2023-02-13T01:24:48;-11298.94;;;-145.39;59.17
37078;BME280;22989;55.998;37.212;2023-02-13T01:27:13;-11298.94;;;-145.39;59.18
37078;BME280;22989;55.998;37.212;2023-02-13T01:29:39;-11298.94;;;-145.39;59.28
37078;BME280;22989;55.998;37.212;2023-02-13T01:32:05;-11298.94;;;-145.39;59.06
37078;BME280;22989;55.998;37.212;2023-02-13T01:34:31;-11298.94;;;-145.39;59.23
37078;BME280;22989;55.998;37.212;2023-02-13T01:36:57;-11298.94;;;-145.39;59.37
37078;BME280;22989;55.998;37.212;2023-02-13T01:39:23;-11298.94;;;-145.39;59.50
37078;BME280;22989;55.998;37.212;2023-02-13T01:41:49;-11298.94;;;-145.39;59.38
37078;BME280;22989;55.998;37.212;2023-02-13T01:47:39;-11298.94;;;-145.39;59.20
37078;BME280;22989;55.998;37.212;2023-02-13T01:50:15;-11298.94;;;-145.39;58.98
37078;BME280;22989;55.998;37.212;2023-02-13T01:52:56;-11298.94;;;-145.39;59.09
37078;BME280;22989;55.998;37.212;2023-02-13T01:55:24;-11298.94;;;-145.39;58.98
37078;BME280;22989;55.998;37.212;2023-02-13T01:57:56;-11298.94;;;-145.39;58.84
37078;BME280;22989;55.998;37.212;2023-02-13T02:00:25;-11298.94;;;-145.39;58.53
37078;BME280;22989;55.998;37.212;2023-02-13T02:02:57;-11298.94;;;-145.39;58.74
37078;BME280;22989;55.998;37.212;2023-02-13T02:05:27;-11298.94;;;-145.39;nan
37078;BME280;22989;55.998;37.212;2023-02-13T02:07:57;-11298.94;;;-145.39;58.76
37078;BME280;22989;55.998;37.212;2023-02-13T02:10:24;-11298.94;;;-145.39;58.97
37078;BME280;22989;55.998;37.212;2023-02-13T02:15:26;-11298.94;;;-145.39;58.89
37078;BME280;22989;55.998;37.212;2023-02-13T02:17:52;-11298.94;;;-145.39;58.75
37078;BME280;22989;55.998;37.212;2023-02-13T02:26:24;-11298.94;;;-145.39;59.04
37078;BME280;22989;55.998;37.212;2023-02-13T02:45:10;-11298.94;;;-145.39;59.01
37078;BME280;22989;55.998;37.212;2023-02-13T02:47:50;-11298.94;;;-145.39;59.07
37078;BME280;22989;55.998;37.212;2023-02-13T02:55:45;-11298.94;;;-145.39;59.14
37078;BME280;22989;55.998;37.212;2023-02-13T02:58:19;-11298.94;;;-145.39;59.11
37078;BME280;22989;55.998;37.212;2023-02-13T03:01:07;-11298.94;;;-145.39;59.38
37078;BME280;22989;55.998;37.212;2023-02-13T03:03:54;-11298.94;;;-145.39;59.57
37078;BME280;22989;55.998;37.212;2023-02-13T03:06:45;-11298.94;;;-145.39;59.50
37078;BME280;22989;55.998;37.212;2023-02-13T03:09:19;-11298.94;;;-145.39;59.81
37078;BME280;22989;55.998;37.212;2023-02-13T03:12:07;-11298.94;;;-145.39;59.75
37078;BME280;22989;55.998;37.212;2023-02-13T03:14:51;-11298.94;;;-145.39;59.77
37078;BME280;22989;55.998;37.212;2023-02-13T03:17:17;-11298.94;;;-145.39;59.84
37078;BME280;22989;55.998;37.212;2023-02-13T03:25:21;-11298.94;;;-145.39;60.01
37078;BME280;22989;55.998;37.212;2023-02-13T03:28:20;-11298.94;;;-145.39;59.96
37078;BME280;22989;55.998;37.212;2023-02-13T03:31:36;-11298.94;;;-145.39;60.04
37078;BME280;22989;55.998;37.212;2023-02-13T03:34:14;-11298.94;;;-145.39;60.35
37078;BME280;22989;55.998;37.212;2023-02-13T03:39:34;-11298.94;;;-145.39;60.06
37078;BME280;22989;55.998;37.212;2023-02-13T03:42:07;-11298.94;;;-145.39;60.27
37078;BME280;22989;55.998;37.212;2023-02-13T03:44:51;-11298.94;;;-145.39;60.13
37078;BME280;22989;55.998;37.212;2023-02-13T03:47:38;-11298.94;;;-145.39;60.13
37078;BME280;22989;55.998;37.212;2023-02-13T03:50:07;-11298.94;;;-145.39;60.06
37078;BME280;22989;55.998;37.212;2023-02-13T03:52:52;-11298.94;;;-145.39;60.20
37078;BME280;22989;55.998;37.212;2023-02-13T03:55:22;-11298.94;;;-145.39;60.25
37078;BME280;22989;55.998;37.212;2023-02-13T03:58:13;-11298.94;;;-145.39;60.34
37078;BME280;22989;55.998;37.212;2023-02-13T04:01:00;-11298.94;;;-145.39;60.42
37078;BME280;22989;55.998;37.212;2023-02-13T04:03:32;-11298.94;;;-145.39;60.50
37078;BME280;22989;55.998;37.212;2023-02-13T04:09:03;-11298.94;;;-145.39;60.40
37078;BME280;22989;55.998;37.212;2023-02-13T04:11:48;-11298.94;;;-145.39;60.70
37078;BME280;22989;55.998;37.212;2023-02-13T04:14:23;-11298.94;;;-145.39;60.68
37078;BME280;22989;55.998;37.212;2023-02-13T04:16:52;-11298.94;;;-145.39;60.78
37078;BME280;22989;55.998;37.212;2023-02-13T04:19:23;-11298.94;;;-145.39;60.62
37078;BME280;22989;55.998;37.212;2023-02-13T04:21:55;-11298.94;;;-145.39;60.85
37078;BME280;22989;55.998;37.212;2023-02-13T04:24:21;-11298.94;;;-145.39;60.89
37078;BME280;22989;55.998;37.212;2023-02-13T04:26:47;-11298.94;;;-145.39;60.74
37078;BME280;22989;55.998;37.212;2023-02-13T04:29:12;-11298.94;;;-145.39;60.84
37078;BME280;22989;55.998;37.212;2023-02-13T04:31:38;-11298.94;;;-145.39;60.69
37078;BME280;22989;55.998;37.212;2023-02-13T04:34:04;-11298.94;;;-145.39;60.68
37078;BME280;22989;55.998;37.212;2023-02-13T04:36:30;-11298.94;;;-145.39;61.25
37078;BME280;22989;55.998;37.212;2023-02-13T04:38:56;-11298.94;;;-145.39;61.58
37078;BME280;22989;55.998;37.212;2023-02-13T04:41:22;-11298.94;;;-145.39;61.38
37078;BME280;22989;55.998;37.212;2023-02-13T04:43:47;-11298.94;;;-145.39;61.16
37078;BME280;22989;55.998;37.212;2023-02-13T04:46:13;-11298.94;;;-145.39;61.32
37078;BME280;22989;55.998;37.212;2023-02-13T04:48:39;-11298.94;;;-145.39;61.34
37078;BME280;22989;55.998;37.212;2023-02-13T04:51:05;-11298.94;;;-145.39;61.15
37078;BME280;22989;55.998;37.212;2023-02-13T04:53:30;-11298.94;;;-145.39;61.12
37078;BME280;22989;55.998;37.212;2023-02-13T04:55:56;-11298.94;;;-145.39;61.10
37078;BME280;22989;55.998;37.212;2023-02-13T04:58:21;-11298.94;;;-145.39;61.24
37078;BME280;22989;55.998;37.212;2023-02-13T05:00:47;-11298.94;;;-145.39;61.01
37078;BME280;22989;55.998;37.212;2023-02-13T05:03:13;-11298.94;;;-145.39;60.83
37078;BME280;22989;55.998;37.212;2023-02-13T05:05:39;-11298.94;;;-145.39;60.95
37078;BME280;22989;55.998;37.212;2023-02-13T05:08:06;-11298.94;;;-145.39;60.89
37078;BME280;22989;55.998;37.212;2023-02-13T05:10:32;-11298.94;;;-145.39;60.84
37078;BME280;22989;55.998;37.212;2023-02-13T05:12:58;-11298.94;;;-145.39;60.90
37078;BME280;22989;55.998;37.212;2023-02-13T05:15:24;-11298.94;;;-145.39;60.76
37078;BME280;22989;55.998;37.212;2023-02-13T05:17:50;-11298.94;;;-145.39;60.71
37078;BME280;22989;55.998;37.212;2023-02-13T05:20:16;-11298.94;;;-145.39;60.73
37078;BME280;22989;55.998;37.212;2023-02-13T05:22:45;-11298.94;;;-145.39;60.72
37078;BME280;22989;55.998;37.212;2023-02-13T05:25:29;-11298.94;;;-145.39;60.61
37078;BME280;22989;55.998;37.212;2023-02-13T05:27:55;-11298.94;;;-145.39;60.58
37078;BME280;22989;55.998;37.212;2023-02-13T05:30:20;-11298.94;;;-145.39;60.54
37078;BME280;22989;55.998;37.212;2023-02-13T05:32:46;-11298.94;;;-145.39;60.47
37078;BME280;22989;55.998;37.212;2023-02-13T05:35:11;-11298.94;;;-145.39;60.61
37078;BME280;22989;55.998;37.212;2023-02-13T05:37:37;-11298.94;;;-145.39;60.56
37078;BME280;22989;55.998;37.212;2023-02-13T05:40:03;-11298.94;;;-145.39;60.48
37078;BME280;22989;55.998;37.212;2023-02-13T05:42:28;-11298.94;;;-145.39;60.52
37078;BME280;22989;55.998;37.212;2023-02-13T05:44:54;-11298.94;;;-145.39;60.32
37078;BME280;22989;55.998;37.212;2023-02-13T05:47:19;-11298.94;;;-145.39;60.12
37078;BME280;22989;55.998;37.212;2023-02-13T05:49:45;-11298.94;;;-145.39;60.22
37078;BME280;22989;55.998;37.212;2023-02-13T05:52:10;-11298.94;;;-145.39;60.26
37078;BME280;22989;55.998;37.212;2023-02-13T05:54:36;-11298.94;;;-145.39;60.06
37078;BME280;22989;55.998;37.212;2023-02-13T05:57:03;-11298.94;;;-145.39;60.09
37078;BME280;22989;55.998;37.212;2023-02-13T05:59:28;-11298.94;;;-145.39;59.86
37078;BME280;22989;55.998;37.212;2023-02-13T06:01:54;-11298.94;;;-145.39;59.74
37078;BME280;22989;55.998;37.212;2023-02-13T06:04:20;-11298.94;;;-145.39;59.83
37078;BME280;22989;55.998;37.212;2023-02-13T06:06:46;-11298.94;;;-145.39;59.72
37078;BME280;22989;55.998;37.212;2023-02-13T06:09:11;-11298.94;;;-145.39;59.81
37078;BME280;22989;55.998;37.212;2023-02-13T06:11:37;-11298.94;;;-145.39;59.69
37078;BME280;22989;55.998;37.212;2023-02-13T06:14:02;-11298.94;;;-145.39;59.47
37078;BME280;22989;55.998;37.212;2023-02-13T06:16:28;-11298.94;;;-145.39;59.48
37078;BME280;22989;55.998;37.212;2023-02-13T06:18:56;-11298.94;;;-145.39;59.43
37078;BME280;22989;55.998;37.212;2023-02-13T06:21:21;-11298.94;;;-145.39;59.52
37078;BME280;22989;55.998;37.212;2023-02-13T06:23:47;-11298.94;;;-145.39;59.23
37078;BME280;22989;55.998;37.212;2023-02-13T06:26:13;-11298.94;;;-145.39;59.21
37078;BME280;22989;55.998;37.212;2023-02-13T06:28:39;-11298.94;;;-145.39;59.40
37078;BME280;22989;55.998;37.212;2023-02-13T06:31:04;-11298.94;;;-145.39;59.06
37078;BME280;22989;55.998;37.212;2023-02-13T06:33:30;-11298.94;;;-145.39;59.08
37078;BME280;22989;55.998;37.212;2023-02-13T06:35:56;-11298.94;;;-145.39;59.18
37078;BME280;22989;55.998;37.212;2023-02-13T06:38:22;-11298.94;;;-145.39;59.16
37078;BME280;22989;55.998;37.212;2023-02-13T06:40:48;-11298.94;;;-145.39;59.17
37078;BME280;22989;55.998;37.212;2023-02-13T06:43:14;-11298.94;;;-145.39;59.01
37078;BME280;22989;55.998;37.212;2023-02-13T06:45:40;-11298.94;;;-145.39;59.08
37078;BME280;22989;55.998;37.212;2023-02-13T06:48:06;-11298.94;;;-145.39;59.04
37078;BME280;22989;55.998;37.212;2023-02-13T06:50:32;-11298.94;;;-145.39;59.13
37078;BME280;22989;55.998;37.212;2023-02-13T06:52:59;-11298.94;;;-145.39;59.15
37078;BME280;22989;55.998;37.212;2023-02-13T06:55:25;-11298.94;;;-145.39;58.95
37078;BME280;22989;55.998;37.212;2023-02-13T06:57:50;-11298.94;;;-145.39;58.98
37078;BME280;22989;55.998;37.212;2023-02-13T07:00:17;-11298.94;;;-145.39;58.94
37078;BME280;22989;55.998;37.212;2023-02-13T07:02:45;-11298.94;;;-145.39;58.58
37078;BME280;22989;55.998;37.212;2023-02-13T07:05:11;-11298.94;;;-145.39;58.45
37078;BME280;22989;55.998;37.212;2023-02-13T07:07:38;-11298.94;;;-145.39;58.18
37078;BME280;22989;55.998;37.212;2023-02-13T07:10:06;-11298.94;;;-145.39;58.02
37078;BME280;22989;55.998;37.212;2023-02-13T07:12:33;-11298.94;;;-145.39;57.97
37078;BME280;22989;55.998;37.212;2023-02-13T07:14:58;-11298.94;;;-145.39;58.02
37078;BME280;22989;55.998;37.212;2023-02-13T07:17:25;-11298.94;;;-145.39;58.06
37078;BME280;22989;55.998;37.212;2023-02-13T07:19:51;-11298.94;;;-145.39;57.76
37078;BME280;22989;55.998;37.212;2023-02-13T07:22:17;-11298.94;;;-145.39;57.56
37078;BME280;22989;55.998;37.212;2023-02-13T07:24:43;-11298.94;;;-145.39;57.48
37078;BME280;22989;55.998;37.212;2023-02-13T07:27:08;-11298.94;;;-145.39;57.43
37078;BME280;22989;55.998;37.212;2023-02-13T07:29:34;-11298.94;;;-145.39;57.26
37078;BME280;22989;55.998;37.212;2023-02-13T07:31:59;-11298.94;;;-145.39;57.45
37078;BME280;22989;55.998;37.212;2023-02-13T07:34:25;-11298.94;;;-145.39;57.53
37078;BME280;22989;55.998;37.212;2023-02-13T07:36:51;-11298.94;;;-145.39;57.55
37078;BME280;22989;55.998;37.212;2023-02-13T07:39:16;-11298.94;;;-145.39;57.75
37078;BME280;22989;55.998;37.212;2023-02-13T07:41:42;-11298.94;;;-145.39;57.83
37078;BME280;22989;55.998;37.212;2023-02-13T07:44:07;-11298.94;;;-145.39;57.72
37078;BME280;22989;55.998;37.212;2023-02-13T07:46:33;-11298.94;;;-145.39;57.85
37078;BME280;22989;55.998;37.212;2023-02-13T07:48:58;-11298.94;;;-145.39;57.58
37078;BME280;22989;55.998;37.212;2023-02-13T07:51:24;-11298.94;;;-145.39;57.48
37078;BME280;22989;55.998;37.212;2023-02-13T07:53:51;-11298.94;;;-145.39;57.56
37078;BME280;22989;55.998;37.212;2023-02-13T07:56:17;-11298.94;;;-145.39;57.46
37078;BME280;22989;55.998;37.212;2023-02-13T07:58:43;-11298.94;;;-145.39;57.40
37078;BME280;22989;55.998;37.212;2023-02-13T08:01:11;-11298.94;;;-145.39;57.29
37078;BME280;22989;55.998;37.212;2023-02-13T08:03:37;-11298.94;;;-145.39;57.29
37078;BME280;22989;55.998;37.212;2023-02-13T08:06:04;-11298.94;;;-145.39;57.34
37078;BME280;22989;55.998;37.212;2023-02-13T08:08:30;-11298.94;;;-145.39;57.22
37078;BME280;22989;55.998;37.212;2023-02-13T08:10:56;-11298.94;;;-145.39;57.07
37078;BME280;22989;55.998;37.212;2023-02-13T08:13:41;-11298.94;;;-145.39;57.33
37078;BME280;22989;55.998;37.212;2023-02-13T08:16:07;-11298.94;;;-145.39;57.45
37078;BME280;22989;55.998;37.212;2023-02-13T08:18:33;-11298.94;;;-145.39;57.17
37078;BME280;22989;55.998;37.212;2023-02-13T08:21:01;-11298.94;;;-145.39;57.24
37078;BME280;22989;55.998;37.212;2023-02-13T08:23:27;-11298.94;;;-145.39;57.58
37078;BME280;22989;55.998;37.212;2023-02-13T08:25:52;-11298.94;;;-145.39;57.62
37078;BME280;22989;55.998;37.212;2023-02-13T08:28:18;-11298.94;;;-145.39;57.81
37078;BME280;22989;55.998;37.212;2023-02-13T08:30:44;-11298.94;;;-145.39;57.89
37078;BME280;22989;55.998;37.212;2023-02-13T08:33:09;-11298.94;;;-145.39;58.04
37078;BME280;22989;55.998;37.212;2023-02-13T08:35:35;-11298.94;;;-145.39;57.94
37078;BME280;22989;55.998;37.212;2023-02-13T08:38:04;-11298.94;;;-145.39;57.97
37078;BME280;22989;55.998;37.212;2023-02-13T08:40:31;-11298.94;;;-145.39;58.12
37078;BME280;22989;55.998;37.212;2023-02-13T08:43:00;-11298.94;;;-145.39;58.15
37078;BME280;22989;55.998;37.212;2023-02-13T08:45:26;-11298.94;;;-145.39;57.97
37078;BME280;22989;55.998;37.212;2023-02-13T08:47:55;-11298.94;;;-145.39;58.21
37078;BME280;22989;55.998;37.212;2023-02-13T08:50:20;-11298.94;;;-145.39;58.26
37078;BME280;22989;55.998;37.212;2023-02-13T08:52:46;-11298.94;;;-145.39;58.23
37078;BME280;22989;55.998;37.212;2023-02-13T08:55:12;-11298.94;;;-145.39;58.20
37078;BME280;22989;55.998;37.212;2023-02-13T08:57:37;-11298.94;;;-145.39;58.13
37078;BME280;22989;55.998;37.212;2023-02-13T09:00:03;-11298.94;;;-145.39;58.07
37078;BME280;22989;55.998;37.212;2023-02-13T09:02:30;-11298.94;;;-145.39;58.06
37078;BME280;22989;55.998;37.212;2023-02-13T09:04:55;-11298.94;;;-145.39;58.21
37078;BME280;22989;55.998;37.212;2023-02-13T09:07:21;-11298.94;;;-145.39;58.12
37078;BME280;22989;55.998;37.212;2023-02-13T09:09:47;-11298.94;;;-145.39;57.97
37078;BME280;22989;55.998;37.212;2023-02-13T09:12:12;-11298.94;;;-145.39;57.87
37078;BME280;22989;55.998;37.212;2023-02-13T09:14:38;-11298.94;;;-145.39;57.87
37078;BME280;22989;55.998;37.212;2023-02-13T09:17:04;-11298.94;;;-145.39;57.81
37078;BME280;22989;55.998;37.212;2023-02-13T09:19:29;-11298.94;;;-145.39;57.85
37078;BME280;22989;55.998;37.212;2023-02-13T09:21:55;-11298.94;;;-145.39;57.76
37078;BME280;22989;55.998;37.212;2023-02-13T09:24:20;-11298.94;;;-145.39;57.72
37078;BME280;22989;55.998;37.212;2023-02-13T09:26:46;-11298.94;;;-145.39;57.61
37078;BME280;22989;55.998;37.212;2023-02-13T09:29:11;-11298.94;;;-145.39;57.60
37078;BME280;22989;55.998;37.212;2023-02-13T09:31:37;-11298.94;;;-145.39;57.48
37078;BME280;22989;55.998;37.212;2023-02-13T09:34:03;-11298.94;;;-145.39;57.37
37078;BME280;22989;55.998;37.212;2023-02-13T09:36:28;-11298.94;;;-145.39;57.19
37078;BME280;22989;55.998;37.212;2023-02-13T09:38:56;-11298.94;;;-145.39;57.07
37078;BME280;22989;55.998;37.212;2023-02-13T09:41:36;-11298.94;;;-145.39;56.68
37078;BME280;22989;55.998;37.212;2023-02-13T09:44:15;-11298.94;;;-145.39;56.52
37078;BME280;22989;55.998;37.212;2023-02-13T09:52:38;-11298.94;;;-145.39;56.12
37078;BME280;22989;55.998;37.212;2023-02-13T09:55:39;-11298.94;;;-145.39;55.94
37078;BME280;22989;55.998;37.212;2023-02-13T10:00:49;-11298.94;;;-145.39;55.66
37078;BME280;22989;55.998;37.212;2023-02-13T10:03:31;-11298.94;;;-145.39;55.89
37078;BME280;22989;55.998;37.212;2023-02-13T10:06:10;-11298.94;;;-145.39;56.00
37078;BME280;22989;55.998;37.212;2023-02-13T10:16:34;-11298.94;;;-145.39;55.84
37078;BME280;22989;55.998;37.212;2023-02-13T10:21:59;-11298.94;;;-145.39;55.42
37078;BME280;22989;55.998;37.212;2023-02-13T10:24:36;-11298.94;;;-145.39;55.57
37078;BME280;22989;55.998;37.212;2023-02-13T10:27:17;-11298.94;;;-145.39;55.63
37078;BME280;22989;55.998;37.212;2023-02-13T10:29:52;-11298.94;;;-145.39;55.78
37078;BME280;22989;55.998;37.212;2023-02-13T10:37:40;-11298.94;;;-145.39;56.16
37078;BME280;22989;55.998;37.212;2023-02-13T10:40:09;-11298.94;;;-145.39;56.33
37078;BME280;22989;55.998;37.212;2023-02-13T10:45:17;-11298.94;;;-145.39;56.29
37078;BME280;22989;55.998;37.212;2023-02-13T10:47:50;-11298.94;;;-145.39;56.17
37078;BME280;22989;55.998;37.212;2023-02-13T10:58:46;-11298.94;;;-145.39;55.83
37078;BME280;22989;55.998;37.212;2023-02-13T11:04:06;-11298.94;;;-145.39;55.93
37078;BME280;22989;55.998;37.212;2023-02-13T11:06:34;-11298.94;;;-145.39;55.89
37078;BME280;22989;55.998;37.212;2023-02-13T11:09:04;-11298.94;;;-145.39;55.95
37078;BME280;22989;55.998;37.212;2023-02-13T11:11:36;-11298.94;;;-145.39;56.08
37078;BME280;22989;55.998;37.212;2023-02-13T11:14:23;-11298.94;;;-145.39;56.00
37078;BME280;22989;55.998;37.212;2023-02-13T11:16:58;-11298.94;;;-145.39;56.12
37078;BME280;22989;55.998;37.212;2023-02-13T11:19:39;-11298.94;;;-145.39;56.24
37078;BME280;22989;55.998;37.212;2023-02-13T11:22:13;-11298.94;;;-145.39;56.27
37078;BME280;22989;55.998;37.212;2023-02-13T11:24:41;-11298.94;;;-145.39;56.43
37078;BME280;22989;55.998;37.212;2023-02-13T11:27:09;-11298.94;;;-145.39;56.48
37078;BME280;22989;55.998;37.212;2023-02-13T11:29:59;-11298.94;;;-145.39;56.47
37078;BME280;22989;55.998;37.212;2023-02-13T11:32:28;-11298.94;;;-145.39;56.35
37078;BME280;22989;55.998;37.212;2023-02-13T11:34:54;-11298.94;;;-145.39;56.53
37078;BME280;22989;55.998;37.212;2023-02-13T11:37:28;-11298.94;;;-145.39;56.36
37078;BME280;22989;55.998;37.212;2023-02-13T11:39:59;-11298.94;;;-145.39;56.36
37078;BME280;22989;55.998;37.212;2023-02-13T11:44:57;-11298.94;;;-145.39;56.43
37078;BME280;22989;55.998;37.212;2023-02-13T11:47:36;-11298.94;;;-145.39;56.29
37078;BME280;22989;55.998;37.212;2023-02-13T11:50:04;-11298.94;;;-145.39;56.24
37078;BME280;22989;55.998;37.212;2023-02-13T11:52:32;-11298.94;;;-145.39;56.10
37078;BME280;22989;55.998;37.212;2023-02-13T11:55:04;-11298.94;;;-145.39;55.76
37078;BME280;22989;55.998;37.212;2023-02-13T11:57:36;-11298.94;;;-145.39;55.19
37078;BME280;22989;55.998;37.212;2023-02-13T12:00:28;-11298.94;;;-145.39;54.59
37078;BME280;22989;55.998;37.212;2023-02-13T12:02:56;-11298.94;;;-145.39;54.56
37078;BME280;22989;55.998;37.212;2023-02-13T12:05:24;-11298.94;;;-145.39;54.56
37078;BME280;22989;55.998;37.212;2023-02-13T12:07:50;-11298.94;;;-145.39;54.44
37078;BME280;22989;55.998;37.212;2023-02-13T12:10:26;-11298.94;;;-145.39;54.35
37078;BME280;22989;55.998;37.212;2023-02-13T12:13:20;-11298.94;;;-145.39;54.31
37078;BME280;22989;55.998;37.212;2023-02-13T12:15:56;-11298.94;;;-145.39;54.41
37078;BME280;22989;55.998;37.212;2023-02-13T12:18:37;-11298.94;;;-145.39;54.43
37078;BME280;22989;55.998;37.212;2023-02-13T12:26:39;-11298.94;;;-145.39;54.82
37078;BME280;22989;55.998;37.212;2023-02-13T12:34:57;-11298.94;;;-145.39;55.24
37078;BME280;22989;55.998;37.212;2023-02-13T12:46:10;-11298.94;;;-145.39;55.37
37078;BME280;22989;55.998;37.212;2023-02-13T13:02:47;-11298.94;;;-145.39;56.11
37078;BME280;22989;55.998;37.212;2023-02-13T13:05:32;-11298.94;;;-145.39;56.29
37078;BME280;22989;55.998;37.212;2023-02-13T13:10:49;-11298.94;;;-145.39;56.67
37078;BME280;22989;55.998;37.212;2023-02-13T13:23:35;-11298.94;;;-145.39;57.51
37078;BME280;22989;55.998;37.212;2023-02-13T13:28:38;-11298.94;;;-145.39;57.78
37078;BME280;22989;55.998;37.212;2023-02-13T13:31:06;-11298.94;;;-145.39;58.07
37078;BME280;22989;55.998;37.212;2023-02-13T13:33:34;-11298.94;;;-145.39;58.38
37078;BME280;22989;55.998;37.212;2023-02-13T13:38:47;-11298.94;;;-145.39;58.55
37078;BME280;22989;55.998;37.212;2023-02-13T13:41:40;-11298.94;;;-145.39;58.87
37078;BME280;22989;55.998;37.212;2023-02-13T13:49:54;-11298.94;;;-145.39;59.59
37078;BME280;22989;55.998;37.212;2023-02-13T13:52:27;-11298.94;;;-145.39;59.67
37078;BME280;22989;55.998;37.212;2023-02-13T13:54:54;-11298.94;;;-145.39;59.96
37078;BME280;22989;55.998;37.212;2023-02-13T14:02:50;-11298.94;;;-145.39;60.53
37078;BME280;22989;55.998;37.212;2023-02-13T14:05:59;-11298.94;;;-145.39;60.63
37078;BME280;22989;55.998;37.212;2023-02-13T14:11:36;-11298.94;;;-145.39;61.00
37078;BME280;22989;55.998;37.212;2023-02-13T14:16:55;-11298.94;;;-145.39;61.29
37078;BME280;22989;55.998;37.212;2023-02-13T14:19:39;-11298.94;;;-145.39;61.42
37078;BME280;22989;55.998;37.212;2023-02-13T14:24:57;-11298.94;;;-145.39;61.62
37078;BME280;22989;55.998;37.212;2023-02-13T14:27:36;-11298.94;;;-145.39;61.66
37078;BME280;22989;55.998;37.212;2023-02-13T14:30:05;-11298.94;;;-145.39;61.94
37078;BME280;22989;55.998;37.212;2023-02-13T14:32:38;-11298.94;;;-145.39;61.83
37078;BME280;22989;55.998;37.212;2023-02-13T14:35:19;-11298.94;;;-145.39;62.00
37078;BME280;22989;55.998;37.212;2023-02-13T14:37:52;-11298.94;;;-145.39;62.14
37078;BME280;22989;55.998;37.212;2023-02-13T14:42:54;-11298.94;;;-145.39;62.25
37078;BME280;22989;55.998;37.212;2023-02-13T14:45:24;-11298.94;;;-145.39;62.33
37078;BME280;22989;55.998;37.212;2023-02-13T14:47:54;-11298.94;;;-145.39;62.26
37078;BME280;22989;55.998;37.212;2023-02-13T14:50:44;-11298.94;;;-145.39;62.36
37078;BME280;22989;55.998;37.212;2023-02-13T14:53:28;-11298.94;;;-145.39;62.48
37078;BME280;22989;55.998;37.212;2023-02-13T14:56:12;-11298.94;;;-145.39;62.62
37078;BME280;22989;55.998;37.212;2023-02-13T14:58:47;-11298.94;;;-145.39;62.63
37078;BME280;22989;55.998;37.212;2023-02-13T15:01:36;-11298.94;;;-145.39;62.67
37078;BME280;22989;55.998;37.212;2023-02-13T15:04:13;-11298.94;;;-145.39;62.78
37078;BME280;22989;55.998;37.212;2023-02-13T15:06:41;-11298.94;;;-145.39;62.75
37078;BME280;22989;55.998;37.212;2023-02-13T15:11:43;-11298.94;;;-145.39;62.89
37078;BME280;22989;55.998;37.212;2023-02-13T15:14:35;-11298.94;;;-145.39;62.99
37078;BME280;22989;55.998;37.212;2023-02-13T15:19:26;-11298.94;;;-145.39;63.07
37078;BME280;22989;55.998;37.212;2023-02-13T15:21:56;-11298.94;;;-145.39;63.11